AirNav   Pilot Hours Calculator
 
 972 users online  

NC66 Ventosa Plantation Airport
Scotland Neck, North Carolina, USA

GOING TO SCOTLAND NECK?


FAA INFORMATION EFFECTIVE 01 DECEMBER 2022

Location

FAA Identifier: NC66
Lat/Long: 36-07-52.5620N 077-17-44.8780W
36-07.876033N 077-17.747967W
36.1312672,-77.2957994
(estimated)
Elevation: 30 ft. / 9 m (estimated)
Variation: 08W (1985)
From city: 6 miles E of SCOTLAND NECK, NC
Time zone: UTC -5 (UTC -4 during Daylight Saving Time)
Zip code: 27874

Airport Operations

Airport use: Private use. Permission required prior to landing
Activation date: 07/1977
Control tower: no
ARTCC: WASHINGTON CENTER
FSS: RALEIGH FLIGHT SERVICE STATION
Attendance: UNATNDD
Wind indicator: yes
Segmented circle: no

Airport Communications

WX AWOS-3 at ASJ (12 nm NE): 119.075 (252-345-2967)
WX AWOS-3P at ETC (17 nm SW): 119.575 (252-641-1640)

Nearby radio navigation aids

VOR radial/distance  VOR name  Freq  Var
TYIr070/21.9TAR RIVER VORTAC117.8005W
CVIr244/25.1COFIELD VORTAC114.6009W
FKNr210/37.6FRANKLIN VORTAC110.6009W

 
NDB name  Hdg/Dist  Freq  Var  ID
ALWOOD017/25.723009WAQE .- --.- .
CHOCOWINITY354/38.438808WRNW .-. -. .--

Airport Services

Runway Information

Runway 3/21

Dimensions: 3400 x 80 ft. / 1036 x 24 m
Surface: turf
Runway edge lights: low intensity
RUNWAY 3  RUNWAY 21
Traffic pattern: leftleft
Obstructions: nonepline, 1000 ft. from runway

Airport Ownership and Management from official FAA records

Ownership: Privately-owned
Owner: ALEX MC LENNAN JR
930 VENTOSA RD
SCOTLAND NECK, NC 27874
Phone 252-826-3622
Manager: ALEX MC LENNAN JR
930 VENTOSA RD
SCOTLAND NECK, NC 27874
Phone 252-826-3622

Airport Operational Statistics

Aircraft based on the field: 1
Single engine airplanes: 1
    

Additional Remarks

AERIAL CROP SPRAYING FROM MARCH 1ST TO NOV 15TH YEARLY; LOW ALTITUDE FLIGHTS ALL QUADRANTS.
FOR CD CTC WASHINGTON ARTCC AT 703-771-3587.

Instrument Procedures

There are no published instrument procedures at NC66.

Some nearby airports with instrument procedures:

KASJ - Tri-County Airport at Henry Joyner Field (12 nm NE)
KETC - Tarboro-Edgecombe Airport (17 nm SW)
KMCZ - Martin County Airport (17 nm S)
KIXA - Halifax/Northampton Regional Airport (20 nm NW)
KPGV - Pitt-Greenville Airport (30 nm S)
 
Loc | Ops | Rwys | IFR | FBO | Links
Com | Nav | Svcs | Stats | Notes
Area around NC66 (Ventosa Plantation Airport)
 
Road maps at: MapQuest Bing Google
 
Aerial photo
No photo
 
Sectional chart

 
Airport distance calculator
Flying to Ventosa Plantation Airport? Find the distance to fly.

From to NC66

Sunrise and sunset
Times for 06-Dec-2022
 Local
(UTC-5)
 Zulu
(UTC)
Morning civil twilight06:3911:39
Sunrise07:0712:07
Sunset16:5321:53
Evening civil twilight17:2222:22

Current date and time
Zulu (UTC)  07-Dec-2022 04:26:09
Local (UTC-5)  06-Dec-2022 23:26:09
 
METAR
KASJ 
11nm NE 
070355Z AUTO 17004KT 10SM BKN075 OVC085 15/15 A3025 RMK AO2 T01530153
KETC 
17nm SW 
070355Z AUTO 15005KT 7SM OVC075 16/16 A3025 RMK AO2 T01630156
KIXA 
20nm NW 
070355Z AUTO 14004KT 10SM SCT024 SCT050 SCT110 14/14 A3024 RMK AO2
TAF
KPGV 
31nm S 
062112Z 0621/0718 VRB06KT P6SM BKN040 FM070600 VRB06KT 5SM BR SCT007 BKN015 FM071400 VRB06KT P6SM BKN025 FM071600 22008KT P6SM SCT035 BKN090 AMD LTD TO CLD VIS AND WIND
KRWI 
34nm SW 
061917Z 0619/0718 20006KT P6SM BKN070 OVC100 FM062300 VRB04KT 3SM BR BKN010 OVC020 FM070600 VRB03KT 2SM BR OVC005
NOTAMs
Click for the latest NOTAMs
NOTAMs are issued by the DoD/FAA and will open in a separate window not controlled by AirNav.

 

 
 

Would you like to see your business listed on this page?

 If your business provides an interesting product or service to pilots, flight crews, aircraft, or users of the Ventosa Plantation Airport, you should consider listing it here.  To start the listing process, click on the button below
 
Add a business
 

Other Pages about Ventosa Plantation Airport

Update a link
 
Copyright © AirNav, LLC. All rights reserved. Privacy Policy  Contact